Time;durP1;ratioP1;P1;durP2;ratioP2;P2;SDS_P1;SDS_P2;PMS_P1;PMS_P2;Temp;Humidity;BMP_temperature;BMP_pressure;BME280_temperature;BME280_humidity;BME280_pressure;Samples;Min_cycle;Max_cycle;Signal;HPM_P1;HPM_P2
2022/11/14 00:00:43;;;;;;;23.23;7.63;;;5.30;99.90;;;;;;4985415;28;20231;-86
2022/11/14 00:03:11;;;;;;;39.63;8.23;;;5.20;99.90;;;;;;4990112;28;20207;-86
2022/11/14 00:05:42;;;;;;;59.20;9.43;;;5.20;99.90;;;;;;4988072;28;20661;-86
2022/11/14 00:08:15;;;;;;;52.63;8.87;;;5.00;99.90;;;;;;4986153;28;20363;-86
2022/11/14 00:10:42;;;;;;;25.60;7.83;;;4.90;99.90;;;;;;4988242;28;20294;-86
2022/11/14 00:13:11;;;;;;;35.80;7.80;;;5.10;99.90;;;;;;4985168;28;20208;-87
2022/11/14 00:15:37;;;;;;;60.13;8.57;;;5.10;99.90;;;;;;4985411;28;20299;-88
2022/11/14 00:18:05;;;;;;;94.83;10.27;;;4.90;99.90;;;;;;4987785;28;20310;-86
2022/11/14 00:20:32;;;;;;;39.03;8.47;;;4.90;99.90;;;;;;4988123;28;20291;-87
2022/11/14 00:23:01;;;;;;;29.03;7.20;;;4.90;99.90;;;;;;4987781;28;20664;-87
2022/11/14 00:25:29;;;;;;;24.10;7.47;;;4.90;99.90;;;;;;4985497;28;20208;-87
2022/11/14 00:27:57;;;;;;;19.90;6.77;;;5.00;99.90;;;;;;4976091;28;20204;-86
2022/11/14 00:30:26;;;;;;;108.70;9.80;;;5.00;99.90;;;;;;4982594;28;20211;-87
2022/11/14 00:32:53;;;;;;;26.73;7.17;;;4.90;99.90;;;;;;4986757;28;20230;-86
2022/11/14 00:35:20;;;;;;;12.50;7.47;;;4.90;99.90;;;;;;4983321;28;20829;-86
2022/11/14 00:37:47;;;;;;;10.93;7.60;;;4.90;99.90;;;;;;4986215;28;20238;-86
2022/11/14 00:40:19;;;;;;;11.03;7.43;;;4.90;99.90;;;;;;4989223;28;20691;-86
2022/11/14 00:42:46;;;;;;;14.47;7.27;;;5.10;99.90;;;;;;4988531;28;20211;-86
2022/11/14 00:45:13;;;;;;;19.03;7.60;;;5.20;99.90;;;;;;4990832;28;20549;-85
2022/11/14 00:47:41;;;;;;;11.40;6.90;;;5.30;99.90;;;;;;4991115;28;20323;-86
2022/11/14 00:50:09;;;;;;;11.70;6.90;;;5.40;99.90;;;;;;4990741;28;20287;-86
2022/11/14 00:52:36;;;;;;;52.07;8.37;;;5.30;99.90;;;;;;4987056;28;20207;-85
2022/11/14 00:55:04;;;;;;;18.20;7.27;;;5.20;99.90;;;;;;4990481;28;20214;-86
2022/11/14 00:57:31;;;;;;;54.33;7.27;;;4.90;99.90;;;;;;4989704;28;20291;-90
2022/11/14 00:59:58;;;;;;;19.83;6.93;;;4.90;99.90;;;;;;4988976;28;20279;-87
2022/11/14 01:02:25;;;;;;;12.10;5.97;;;4.90;99.90;;;;;;4987359;28;20303;-87
2022/11/14 01:04:53;;;;;;;13.07;6.40;;;5.00;99.90;;;;;;4989767;28;20208;-86
2022/11/14 01:07:20;;;;;;;61.47;7.20;;;5.10;99.90;;;;;;4994706;28;20295;-86
2022/11/14 01:09:47;;;;;;;42.43;7.40;;;5.10;99.90;;;;;;4987020;28;20204;-87
2022/11/14 01:12:14;;;;;;;73.90;8.97;;;5.10;99.90;;;;;;4991148;28;20515;-86
2022/11/14 01:14:41;;;;;;;66.70;7.60;;;4.90;99.90;;;;;;4985511;28;20200;-86
2022/11/14 01:17:08;;;;;;;17.27;6.60;;;4.80;99.90;;;;;;4990891;28;20298;-87
2022/11/14 01:19:35;;;;;;;8.27;6.27;;;4.70;99.90;;;;;;4989274;28;20223;-86
2022/11/14 01:22:04;;;;;;;7.60;5.93;;;4.70;99.90;;;;;;4991236;28;20229;-86
2022/11/14 01:24:32;;;;;;;38.43;6.63;;;4.80;99.90;;;;;;4988692;28;20291;-86
2022/11/14 01:26:59;;;;;;;74.07;8.10;;;4.80;99.90;;;;;;4986644;28;20208;-86
2022/11/14 01:29:26;;;;;;;15.37;5.80;;;4.50;99.90;;;;;;4977888;28;20328;-85
2022/11/14 01:31:53;;;;;;;49.03;6.93;;;4.50;99.90;;;;;;4991523;28;20233;-85
2022/11/14 01:34:21;;;;;;;48.43;6.83;;;4.50;99.90;;;;;;4989920;28;20212;-85
2022/11/14 01:36:48;;;;;;;35.20;6.60;;;4.50;99.90;;;;;;4987831;28;20302;-85
2022/11/14 01:39:16;;;;;;;40.23;6.63;;;4.30;99.90;;;;;;4984668;28;20303;-85
2022/11/14 01:41:43;;;;;;;42.10;6.60;;;4.20;99.90;;;;;;4988088;28;20208;-86
2022/11/14 01:44:14;;;;;;;61.40;7.67;;;4.20;99.90;;;;;;4980751;28;20285;-86
2022/11/14 01:46:45;;;;;;;69.17;7.60;;;4.10;99.90;;;;;;4988579;28;20915;-86
2022/11/14 01:49:18;;;;;;;41.43;7.33;;;4.00;99.90;;;;;;4986172;28;20200;-86
2022/11/14 01:51:48;;;;;;;25.73;6.30;;;4.00;99.90;;;;;;4990194;28;20215;-85
2022/11/14 01:54:23;;;;;;;6.60;6.00;;;4.00;99.90;;;;;;4987149;28;20266;-86
2022/11/14 01:56:55;;;;;;;30.50;6.67;;;4.10;99.90;;;;;;4989926;28;20679;-85
2022/11/14 01:59:25;;;;;;;43.20;6.50;;;4.20;99.90;;;;;;4986647;28;20348;-85
2022/11/14 02:01:57;;;;;;;12.33;6.23;;;4.20;99.90;;;;;;4985175;28;20235;-85
2022/11/14 02:04:28;;;;;;;7.00;5.57;;;4.30;99.90;;;;;;4990457;28;20218;-85
2022/11/14 02:06:58;;;;;;;26.50;6.67;;;4.30;99.90;;;;;;4990111;28;21202;-85
2022/11/14 02:09:28;;;;;;;20.37;6.87;;;4.40;99.90;;;;;;4984437;28;20218;-85
2022/11/14 02:11:58;;;;;;;8.97;6.30;;;4.40;99.90;;;;;;4988397;28;20196;-85
2022/11/14 02:14:25;;;;;;;16.23;7.37;;;4.40;99.90;;;;;;4985455;28;20269;-85
2022/11/14 02:16:51;;;;;;;25.97;7.40;;;4.50;99.90;;;;;;4988553;28;20210;-85
2022/11/14 02:19:18;;;;;;;11.83;6.80;;;4.50;99.90;;;;;;4989965;28;20247;-85
2022/11/14 02:21:47;;;;;;;17.40;7.27;;;4.60;99.90;;;;;;4989850;28;20238;-85
2022/11/14 02:24:14;;;;;;;7.97;6.93;;;4.70;99.90;;;;;;4989897;28;20310;-85
2022/11/14 02:26:42;;;;;;;7.50;6.80;;;4.80;99.90;;;;;;4989500;28;20222;-85
2022/11/14 02:29:10;;;;;;;9.83;6.93;;;5.00;99.90;;;;;;4988914;28;20295;-85
2022/11/14 02:31:38;;;;;;;13.17;6.70;;;5.10;99.90;;;;;;4990436;28;20683;-85
2022/11/14 02:34:04;;;;;;;12.70;6.53;;;5.20;99.90;;;;;;4989967;28;20246;-86
2022/11/14 02:36:31;;;;;;;7.47;6.67;;;5.20;99.90;;;;;;4988641;28;20574;-88
2022/11/14 02:38:59;;;;;;;6.90;6.07;;;5.20;99.90;;;;;;4988643;28;20293;-85
2022/11/14 02:41:26;;;;;;;7.77;6.83;;;5.20;99.90;;;;;;4987815;28;20239;-86
2022/11/14 02:43:53;;;;;;;16.67;7.00;;;5.10;99.90;;;;;;4988106;28;20208;-85
2022/11/14 02:46:26;;;;;;;18.13;7.23;;;4.90;99.90;;;;;;4989801;28;20295;-86
2022/11/14 02:48:52;;;;;;;31.40;6.93;;;4.90;99.90;;;;;;4984229;28;20219;-86
2022/11/14 02:51:19;;;;;;;21.83;7.27;;;4.70;99.90;;;;;;4991516;28;20302;-85
2022/11/14 02:53:46;;;;;;;35.60;7.47;;;4.60;99.90;;;;;;4993723;28;20314;-86
2022/11/14 02:56:14;;;;;;;7.00;6.40;;;4.60;99.90;;;;;;4992467;28;20724;-86
2022/11/14 02:58:41;;;;;;;12.27;6.17;;;4.60;99.90;;;;;;4995869;28;20560;-86
2022/11/14 03:01:08;;;;;;;8.87;6.57;;;4.60;99.90;;;;;;4989468;28;20215;-85
2022/11/14 03:03:35;;;;;;;8.60;6.73;;;4.70;99.90;;;;;;4993441;28;20288;-86
2022/11/14 03:06:03;;;;;;;7.67;6.60;;;4.60;99.90;;;;;;4993862;28;20499;-85
2022/11/14 03:08:30;;;;;;;7.50;6.70;;;4.60;99.90;;;;;;4990936;28;21051;-86
2022/11/14 03:11:03;;;;;;;6.63;6.03;;;4.60;99.90;;;;;;4989498;28;20204;-85
2022/11/14 03:13:31;;;;;;;6.70;6.00;;;4.70;99.90;;;;;;4992566;28;20242;-86
2022/11/14 03:15:58;;;;;;;6.73;6.03;;;4.60;99.90;;;;;;4993791;28;20235;-85
2022/11/14 03:18:25;;;;;;;6.73;6.03;;;4.60;99.90;;;;;;4992828;28;20697;-86
2022/11/14 03:20:52;;;;;;;7.07;6.13;;;4.60;99.90;;;;;;4994575;28;20241;-84
2022/11/14 03:23:19;;;;;;;6.90;6.20;;;4.80;99.90;;;;;;4990530;28;20200;-87
2022/11/14 03:25:46;;;;;;;7.07;6.37;;;4.80;99.90;;;;;;4988705;28;20216;-85
2022/11/14 03:28:12;;;;;;;7.00;6.30;;;4.60;99.90;;;;;;4990891;28;20664;-86
2022/11/14 03:30:46;;;;;;;7.77;5.77;;;4.60;99.90;;;;;;4987791;28;20295;-86
2022/11/14 03:33:13;;;;;;;6.50;5.90;;;4.60;99.90;;;;;;4991463;28;20288;-86
2022/11/14 03:35:42;;;;;;;14.27;6.10;;;4.70;99.90;;;;;;4987388;28;20632;-85
2022/11/14 03:38:09;;;;;;;9.30;6.53;;;4.80;99.90;;;;;;4990179;28;20295;-86
2022/11/14 03:40:39;;;;;;;24.23;6.67;;;4.70;99.90;;;;;;4985711;28;20220;-86
2022/11/14 03:43:07;;;;;;;9.83;6.87;;;4.60;99.90;;;;;;4986016;28;20565;-86
2022/11/14 03:45:35;;;;;;;7.00;6.30;;;4.50;99.90;;;;;;4988349;28;20290;-85
2022/11/14 03:48:04;;;;;;;7.33;6.53;;;4.40;99.90;;;;;;4992272;28;20239;-86
2022/11/14 03:50:31;;;;;;;7.67;6.60;;;4.20;99.90;;;;;;4991398;28;20299;-86
2022/11/14 03:52:58;;;;;;;7.40;5.60;;;4.20;99.90;;;;;;4993158;28;20208;-85
2022/11/14 03:55:25;;;;;;;6.37;5.70;;;4.40;99.90;;;;;;4991505;28;20670;-85
2022/11/14 03:57:52;;;;;;;8.10;5.80;;;4.60;99.90;;;;;;4990706;28;20645;-85
2022/11/14 04:00:19;;;;;;;7.17;6.43;;;4.60;99.90;;;;;;4991751;28;20215;-85
2022/11/14 04:02:47;;;;;;;7.77;6.00;;;4.50;99.90;;;;;;4989361;28;20207;-85
2022/11/14 04:05:15;;;;;;;6.73;5.90;;;4.40;99.90;;;;;;4991545;28;20207;-85
2022/11/14 04:07:42;;;;;;;32.13;7.07;;;4.50;99.90;;;;;;4991205;28;20299;-86
2022/11/14 04:10:10;;;;;;;8.17;6.20;;;4.50;99.90;;;;;;4987385;28;20644;-85
2022/11/14 04:12:37;;;;;;;6.47;5.87;;;4.60;99.90;;;;;;4991784;28;20211;-86
2022/11/14 04:15:08;;;;;;;25.77;6.47;;;4.80;99.90;;;;;;4991648;28;20208;-85
2022/11/14 04:17:34;;;;;;;14.40;5.50;;;4.70;99.90;;;;;;4991076;28;20292;-85
2022/11/14 04:20:01;;;;;;;65.60;7.20;;;4.60;99.90;;;;;;4989529;28;20227;-86
2022/11/14 04:22:29;;;;;;;48.47;6.93;;;4.60;99.90;;;;;;4977326;28;20754;-85
2022/11/14 04:24:56;;;;;;;59.33;7.53;;;4.50;99.90;;;;;;4987247;28;20208;-86
2022/11/14 04:27:23;;;;;;;44.70;7.03;;;4.30;99.90;;;;;;4990109;28;20211;-86
2022/11/14 04:29:50;;;;;;;21.77;6.27;;;4.20;99.90;;;;;;4987476;28;20291;-85
2022/11/14 04:32:17;;;;;;;16.17;6.67;;;4.30;99.90;;;;;;4991935;28;20258;-85
2022/11/14 04:34:43;;;;;;;14.93;6.97;;;4.30;99.90;;;;;;4983367;28;20332;-86
2022/11/14 04:37:10;;;;;;;21.33;6.70;;;4.30;99.90;;;;;;4992217;28;20330;-85
2022/11/14 04:39:38;;;;;;;8.00;6.93;;;4.30;99.90;;;;;;4991432;28;20319;-86
2022/11/14 04:42:05;;;;;;;48.77;8.20;;;4.40;99.90;;;;;;4991271;28;20199;-85
2022/11/14 04:44:32;;;;;;;20.43;7.50;;;4.50;99.90;;;;;;4989974;28;20781;-86
2022/11/14 04:46:59;;;;;;;10.03;7.20;;;4.40;99.90;;;;;;4990761;28;20283;-85
2022/11/14 04:49:26;;;;;;;17.93;7.73;;;4.50;99.90;;;;;;4988009;28;20267;-85
2022/11/14 04:51:53;;;;;;;11.60;6.97;;;4.50;99.90;;;;;;4990110;28;20208;-85
2022/11/14 04:54:25;;;;;;;24.80;7.27;;;4.70;99.90;;;;;;4992377;28;20226;-84
2022/11/14 04:56:53;;;;;;;40.70;7.70;;;4.70;99.90;;;;;;4989022;28;20203;-85
2022/11/14 04:59:20;;;;;;;27.23;6.77;;;4.50;99.90;;;;;;4985487;28;20330;-85
2022/11/14 05:01:47;;;;;;;67.93;7.80;;;4.50;99.90;;;;;;4990367;28;20704;-85
2022/11/14 05:04:19;;;;;;;97.77;8.47;;;4.60;99.90;;;;;;4986238;28;20579;-89
2022/11/14 05:06:49;;;;;;;37.83;6.97;;;4.50;99.90;;;;;;4991338;28;20580;-85
2022/11/14 05:09:16;;;;;;;31.57;6.63;;;4.40;99.90;;;;;;4987709;28;20660;-86
2022/11/14 05:11:42;;;;;;;108.30;8.67;;;4.30;99.90;;;;;;4989967;28;20298;-87
2022/11/14 05:14:11;;;;;;;21.07;6.27;;;4.20;99.90;;;;;;4986942;28;20287;-84
2022/11/14 05:16:38;;;;;;;43.33;7.07;;;4.00;99.90;;;;;;4989807;28;20291;-86
2022/11/14 05:19:05;;;;;;;43.27;6.83;;;4.00;99.90;;;;;;4991065;28;20579;-85
2022/11/14 05:21:37;;;;;;;23.33;6.17;;;4.00;99.90;;;;;;4990461;28;20212;-85
2022/11/14 05:24:04;;;;;;;14.60;5.90;;;3.90;99.90;;;;;;4991127;28;20378;-85
2022/11/14 05:26:32;;;;;;;41.67;6.23;;;4.10;99.90;;;;;;4980968;28;20288;-85
2022/11/14 05:28:59;;;;;;;96.13;7.90;;;4.10;99.90;;;;;;4989294;28;20665;-86
2022/11/14 05:31:27;;;;;;;54.93;6.53;;;4.00;99.90;;;;;;4990044;28;20204;-87
2022/11/14 05:33:55;;;;;;;121.03;8.73;;;3.90;99.90;;;;;;4989565;28;20262;-86
2022/11/14 05:36:22;;;;;;;54.20;7.70;;;3.80;99.90;;;;;;4983350;28;20280;-86
2022/11/14 05:38:49;;;;;;;119.07;9.10;;;3.80;99.90;;;;;;4985626;28;20258;-86
2022/11/14 05:41:18;;;;;;;25.27;6.23;;;3.70;99.90;;;;;;4991603;28;20220;-85
2022/11/14 05:43:45;;;;;;;47.13;6.47;;;3.80;99.90;;;;;;4981723;28;20290;-87
2022/11/14 05:46:15;;;;;;;30.63;5.90;;;3.90;99.90;;;;;;4989822;28;20298;-86
2022/11/14 05:48:43;;;;;;;36.47;5.80;;;4.00;99.90;;;;;;4988867;28;20292;-86
2022/11/14 05:51:12;;;;;;;43.77;6.27;;;4.10;99.90;;;;;;4991954;28;20302;-87
2022/11/14 05:53:39;;;;;;;17.53;7.30;;;4.10;99.90;;;;;;4992503;28;20328;-86
2022/11/14 05:56:09;;;;;;;23.73;8.20;;;4.00;99.90;;;;;;4986801;28;20201;-86
2022/11/14 05:58:36;;;;;;;50.43;7.63;;;4.60;99.90;;;;;;4981718;28;20548;-83
2022/11/14 06:01:05;;;;;;;10.20;6.37;;;5.00;99.90;;;;;;4984019;28;20252;-86
2022/11/14 06:03:33;;;;;;;18.53;5.30;;;5.00;99.90;;;;;;4981497;28;20295;-86
2022/11/14 06:06:02;;;;;;;7.30;5.27;;;5.30;99.90;;;;;;4984202;28;20668;-88
2022/11/14 06:08:29;;;;;;;15.13;4.20;;;5.30;99.90;;;;;;4987816;28;20211;-86
2022/11/14 06:10:56;;;;;;;24.03;4.40;;;5.50;99.10;;;;;;4984874;28;20568;-86
2022/11/14 06:13:23;;;;;;;15.67;4.33;;;5.00;96.60;;;;;;4986521;28;20208;-85
2022/11/14 06:15:58;;;;;;;15.83;6.33;;;4.40;97.90;;;;;;4982823;28;20214;-84
2022/11/14 06:18:25;;;;;;;19.60;4.90;;;4.30;98.40;;;;;;4985972;28;20294;-85
2022/11/14 06:20:52;;;;;;;29.97;18.77;;;4.00;98.50;;;;;;4991363;28;20349;-86
2022/11/14 06:23:20;;;;;;;5.83;5.03;;;4.10;99.90;;;;;;4983432;28;20302;-87
2022/11/14 06:25:49;;;;;;;16.63;11.10;;;4.40;99.90;;;;;;4928751;28;154076;-86
2022/11/14 06:28:16;;;;;;;132.57;77.47;;;4.30;99.90;;;;;;4979689;28;20295;-83
2022/11/14 06:30:43;;;;;;;36.90;24.23;;;4.60;99.50;;;;;;4978809;28;20286;-84
2022/11/14 06:33:13;;;;;;;21.90;14.43;;;4.80;99.00;;;;;;4980940;28;20327;-84
2022/11/14 06:35:43;;;;;;;10.07;8.07;;;4.70;97.80;;;;;;4984063;28;20226;-84
2022/11/14 06:38:10;;;;;;;6.07;4.00;;;4.80;97.40;;;;;;4981740;28;20260;-83
2022/11/14 06:40:44;;;;;;;9.30;6.70;;;4.60;97.00;;;;;;4976410;28;20215;-83
2022/11/14 06:43:11;;;;;;;9.37;6.57;;;4.60;98.40;;;;;;4983251;28;20282;-85
2022/11/14 06:45:38;;;;;;;4.07;3.73;;;4.60;98.30;;;;;;4978809;28;20290;-87
2022/11/14 06:48:05;;;;;;;3.80;3.50;;;4.60;97.60;;;;;;4983565;28;20208;-87
2022/11/14 06:50:37;;;;;;;5.50;5.00;;;4.30;97.20;;;;;;4979362;28;20215;-86
2022/11/14 06:53:04;;;;;;;4.10;3.70;;;4.10;98.60;;;;;;4986373;28;20757;-87
2022/11/14 06:55:31;;;;;;;3.97;3.67;;;3.90;98.30;;;;;;4982622;28;20239;-88
2022/11/14 06:57:59;;;;;;;4.00;3.60;;;3.60;99.10;;;;;;4983108;28;20286;-86
2022/11/14 07:00:28;;;;;;;4.10;3.80;;;3.50;99.90;;;;;;4986481;28;20318;-88
2022/11/14 07:02:55;;;;;;;4.23;3.83;;;3.40;99.90;;;;;;4979940;28;20295;-87
2022/11/14 07:05:22;;;;;;;5.60;4.83;;;3.30;99.90;;;;;;4983248;28;20295;-87
2022/11/14 07:07:48;;;;;;;4.67;4.27;;;3.40;99.90;;;;;;4983839;28;20683;-87
2022/11/14 07:10:16;;;;;;;6.47;5.03;;;3.60;99.90;;;;;;4987973;28;20610;-89
2022/11/14 07:12:42;;;;;;;5.73;4.90;;;3.60;99.90;;;;;;4985844;28;20699;-87
2022/11/14 07:15:11;;;;;;;4.40;4.00;;;4.00;99.90;;;;;;4989648;28;20302;-87
2022/11/14 07:17:38;;;;;;;5.33;4.83;;;4.10;99.90;;;;;;4984672;28;20284;-87
2022/11/14 07:20:06;;;;;;;5.93;5.13;;;4.20;99.90;;;;;;4977534;28;20234;-89
2022/11/14 07:22:37;;;;;;;5.00;4.10;;;4.40;99.90;;;;;;4986504;28;20219;-86
2022/11/14 07:25:04;;;;;;;5.80;5.10;;;4.60;99.90;;;;;;4975468;28;20327;-88
2022/11/14 07:27:56;;;;;;;4.37;3.97;;;4.60;99.90;;;;;;4982974;28;20262;-88
2022/11/14 07:30:25;;;;;;;5.00;4.50;;;4.70;99.10;;;;;;4987255;28;20248;-88
2022/11/14 07:32:55;;;;;;;5.30;4.40;;;4.80;99.30;;;;;;4991200;28;20200;-89
2022/11/14 07:35:22;;;;;;;5.03;4.03;;;4.70;99.50;;;;;;4987984;28;20206;-89
2022/11/14 07:37:49;;;;;;;5.57;4.90;;;4.70;99.90;;;;;;4983811;28;20215;-88
2022/11/14 07:40:16;;;;;;;5.33;4.33;;;5.10;99.90;;;;;;4982992;28;20220;-89
2022/11/14 07:42:43;;;;;;;5.63;4.90;;;5.50;98.70;;;;;;4986303;28;20323;-89
2022/11/14 07:45:11;;;;;;;5.33;4.77;;;5.60;98.10;;;;;;4988644;28;20211;-89
2022/11/14 07:47:39;;;;;;;5.70;5.20;;;5.40;97.80;;;;;;4982469;28;20207;-87
2022/11/14 07:50:07;;;;;;;6.97;5.83;;;5.40;97.70;;;;;;4981866;28;20204;-88
2022/11/14 07:52:34;;;;;;;6.63;6.03;;;5.40;97.10;;;;;;4987481;28;20200;-89
2022/11/14 07:55:01;;;;;;;6.73;6.03;;;5.30;97.30;;;;;;4992982;28;20219;-89
2022/11/14 07:57:28;;;;;;;7.47;5.97;;;5.00;98.00;;;;;;4993009;28;20637;-89
2022/11/14 07:59:54;;;;;;;7.13;6.00;;;5.00;99.40;;;;;;4989692;28;20290;-91
2022/11/14 08:02:21;;;;;;;7.60;5.67;;;5.30;99.70;;;;;;4981427;28;20298;-89
2022/11/14 08:04:50;;;;;;;6.70;5.67;;;5.60;99.10;;;;;;4989433;28;20222;-88
2022/11/14 08:07:16;;;;;;;7.47;5.90;;;5.60;98.40;;;;;;4984306;28;20299;-87
2022/11/14 08:09:43;;;;;;;7.83;5.70;;;5.80;98.20;;;;;;4987618;28;20200;-88
2022/11/14 08:12:10;;;;;;;10.93;5.50;;;6.00;98.80;;;;;;4984198;28;20303;-87
2022/11/14 08:14:37;;;;;;;6.00;5.17;;;6.20;97.30;;;;;;4991202;28;20613;-88
2022/11/14 08:17:05;;;;;;;7.33;5.63;;;6.30;96.80;;;;;;4984526;28;20246;-88
2022/11/14 08:19:31;;;;;;;5.67;5.17;;;6.20;97.50;;;;;;4982445;28;20943;-89
2022/11/14 08:22:00;;;;;;;7.13;5.43;;;6.20;97.20;;;;;;4992511;28;20342;-89
2022/11/14 08:24:27;;;;;;;6.37;5.23;;;6.00;97.40;;;;;;4990433;28;20211;-90
2022/11/14 08:26:54;;;;;;;5.78;5.22;;;5.90;98.00;;;;;;4991819;28;20206;-89
2022/11/14 08:33:13;;;;;;;5.55;5.05;;;6.10;98.30;;;;;;4984810;28;20241;-91
2022/11/14 08:35:55;;;;;;;7.65;5.28;;;6.30;98.20;;;;;;4996226;28;20275;-89
2022/11/14 08:38:23;;;;;;;6.13;5.50;;;6.30;97.50;;;;;;4995721;28;20279;-87
2022/11/14 08:40:50;;;;;;;7.78;5.53;;;6.80;96.60;;;;;;4990483;28;20322;-88
2022/11/14 08:43:17;;;;;;;5.70;5.10;;;7.40;95.60;;;;;;4992090;28;20673;-87
2022/11/14 08:49:19;;;;;;;7.85;4.47;;;8.50;92.00;;;;;;4984086;28;20723;-87
2022/11/14 08:51:46;;;;;;;6.60;4.60;;;8.80;90.40;;;;;;4990581;28;20200;-88
2022/11/14 08:58:04;;;;;;;6.43;4.55;;;9.20;88.90;;;;;;4992276;28;20183;-88
2022/11/14 09:00:31;;;;;;;6.25;4.63;;;9.50;86.60;;;;;;4995499;28;20311;-88
2022/11/14 09:02:58;;;;;;;7.18;4.40;;;9.30;85.80;;;;;;4990671;28;20295;-89
2022/11/14 09:05:24;;;;;;;6.03;4.60;;;9.30;88.40;;;;;;4984965;28;20331;-88
2022/11/14 09:07:51;;;;;;;12.60;5.20;;;9.70;87.20;;;;;;4988321;28;20204;-88
2022/11/14 09:10:18;;;;;;;12.20;5.47;;;9.80;81.80;;;;;;4978105;28;20208;-88
2022/11/14 09:12:45;;;;;;;15.50;4.97;;;10.00;81.90;;;;;;4990436;28;20295;-87
2022/11/14 09:15:13;;;;;;;6.10;4.80;;;10.80;79.40;;;;;;4986678;28;20235;-87
2022/11/14 09:17:40;;;;;;;6.85;4.60;;;11.80;63.30;;;;;;4990439;28;20208;-86
2022/11/14 09:20:08;;;;;;;9.52;4.65;;;12.40;52.40;;;;;;4990627;28;20205;-87
2022/11/14 09:22:34;;;;;;;7.78;5.07;;;12.40;51.30;;;;;;4987560;28;20206;-88
2022/11/14 09:25:01;;;;;;;5.07;4.25;;;12.10;51.20;;;;;;4991770;28;20286;-89
2022/11/14 09:27:31;;;;;;;6.93;4.32;;;11.50;52.90;;;;;;4992711;28;20545;-90
2022/11/14 09:29:58;;;;;;;6.45;4.32;;;10.70;60.00;;;;;;4991538;28;20287;-90
2022/11/14 09:32:26;;;;;;;7.25;4.68;;;10.90;67.20;;;;;;4987747;28;20554;-90
2022/11/14 09:34:53;;;;;;;5.57;4.70;;;11.40;60.60;;;;;;4992757;28;20298;-88
2022/11/14 09:37:20;;;;;;;7.00;4.60;;;11.70;60.10;;;;;;4985806;28;20203;-91
2022/11/14 09:40:02;;;;;;;5.18;4.68;;;12.00;57.80;;;;;;4991219;28;20208;-90
2022/11/14 09:42:45;;;;;;;7.55;4.97;;;11.70;57.80;;;;;;4989972;28;20231;-90
2022/11/14 09:45:16;;;;;;;8.63;4.78;;;11.30;62.90;;;;;;4994361;28;20282;-92
2022/11/14 09:47:46;;;;;;;7.90;5.20;;;11.50;70.70;;;;;;4990193;28;20196;-90
2022/11/14 09:53:43;;;;;;;6.40;4.75;;;13.70;50.20;;;;;;4991503;28;20270;-88
2022/11/14 09:56:12;;;;;;;10.10;5.18;;;14.00;45.00;;;;;;4990850;28;20199;-89
2022/11/14 09:58:41;;;;;;;7.93;4.90;;;14.10;41.60;;;;;;4990612;28;20191;-88
2022/11/14 10:01:16;;;;;;;8.02;4.57;;;13.80;40.90;;;;;;4993839;28;20224;-87
2022/11/14 10:07:23;;;;;;;8.85;5.40;;;14.90;35.90;;;;;;4998007;28;20218;-84
2022/11/14 10:10:03;;;;;;;8.65;5.10;;;15.70;34.00;;;;;;4995694;28;20739;-85
2022/11/14 10:16:15;;;;;;;14.32;6.10;;;15.60;29.90;;;;;;4987988;28;20679;-85
2022/11/14 10:19:07;;;;;;;13.02;5.90;;;14.60;32.40;;;;;;4989770;28;20238;-86
2022/11/14 10:21:50;;;;;;;15.73;6.78;;;15.00;31.20;;;;;;4985569;28;20759;-84
2022/11/14 10:24:40;;;;;;;11.63;6.20;;;14.60;32.80;;;;;;4990279;28;20282;-84
2022/11/14 10:27:14;;;;;;;9.23;6.38;;;14.80;33.20;;;;;;4988708;28;20589;-88
2022/11/14 10:29:59;;;;;;;14.10;7.03;;;14.70;32.50;;;;;;4991512;28;20561;-84
2022/11/14 10:32:40;;;;;;;8.32;5.78;;;14.40;33.90;;;;;;4990266;28;20199;-83
2022/11/14 10:35:14;;;;;;;10.77;7.10;;;14.40;36.50;;;;;;4976634;28;20268;-84
2022/11/14 10:37:51;;;;;;;10.07;5.95;;;14.80;32.90;;;;;;4987360;28;20252;-84
2022/11/14 10:40:23;;;;;;;10.45;6.40;;;14.80;33.30;;;;;;4988557;28;20203;-86
2022/11/14 10:43:07;;;;;;;12.73;5.75;;;14.50;35.30;;;;;;4986654;28;20286;-85
2022/11/14 10:45:41;;;;;;;10.95;5.72;;;15.00;34.50;;;;;;4989903;28;20196;-85
2022/11/14 10:48:17;;;;;;;11.57;6.00;;;15.20;30.70;;;;;;4984692;28;20214;-87
2022/11/14 10:50:52;;;;;;;9.75;5.70;;;14.70;34.80;;;;;;4985670;28;20299;-88
2022/11/14 10:53:27;;;;;;;7.88;5.53;;;13.90;35.50;;;;;;4988481;28;20249;-88
2022/11/14 10:55:56;;;;;;;9.65;6.10;;;13.70;37.70;;;;;;4979001;28;20655;-90
2022/11/14 10:58:26;;;;;;;6.80;5.47;;;13.50;40.70;;;;;;4982633;28;20185;-91
2022/11/14 11:00:53;;;;;;;7.25;6.30;;;13.60;41.70;;;;;;4981061;28;20696;-89
2022/11/14 11:04:07;;;;;;;8.20;6.13;;;13.60;38.90;;;;;;4979845;28;20191;-93
2022/11/14 11:12:48;;;;;;;9.32;6.22;;;13.00;46.90;;;;;;4993079;28;20206;-91
2022/11/14 11:15:22;;;;;;;11.77;6.57;;;12.70;49.20;;;;;;4994404;28;20231;-92
2022/11/14 11:18:25;;;;;;;13.18;6.68;;;12.70;49.20;;;;;;5015563;28;20279;-91
2022/11/14 11:21:04;;;;;;;11.15;6.85;;;12.60;49.10;;;;;;4985197;28;20660;-91
2022/11/14 11:30:22;;;;;;;10.30;7.15;;;12.80;49.60;;;;;;4998268;28;20183;-92
2022/11/14 11:43:15;;;;;;;9.75;8.32;;;12.80;53.40;;;;;;4995561;28;20675;-89
2022/11/14 11:49:15;;;;;;;9.65;7.65;;;12.50;60.60;;;;;;4996947;28;20285;-89
2022/11/14 11:52:12;;;;;;;9.13;8.23;;;12.30;69.20;;;;;;4987349;28;20250;-89
2022/11/14 11:55:28;;;;;;;10.63;9.52;;;12.20;73.60;;;;;;4983286;28;20291;-91
2022/11/14 12:02:21;;;;;;;10.68;9.43;;;12.00;76.70;;;;;;4998142;28;20220;-91
2022/11/14 12:05:28;;;;;;;10.73;8.93;;;12.00;77.40;;;;;;4997647;28;20315;-91
2022/11/14 12:08:08;;;;;;;10.50;8.90;;;11.80;75.00;;;;;;4996286;28;20210;-91
2022/11/14 12:14:48;;;;;;;11.40;6.10;;;12.00;72.90;;;;;;4989680;28;20175;-91
2022/11/14 12:35:52;;;;;;;7.07;5.50;;;12.40;56.90;;;;;;4993479;28;20298;-89
2022/11/14 12:48:34;;;;;;;6.45;5.15;;;12.80;44.80;;;;;;5015871;28;20229;-88
2022/11/14 12:54:50;;;;;;;5.70;4.82;;;13.00;42.90;;;;;;5124639;23;20245;-90
2022/11/14 12:57:47;;;;;;;5.90;4.80;;;12.90;42.50;;;;;;5027681;28;20213;-91
2022/11/14 13:00:14;;;;;;;5.10;4.60;;;12.90;45.10;;;;;;5028172;28;20206;-88
2022/11/14 13:06:42;;;;;;;6.43;5.03;;;12.80;46.30;;;;;;5035394;28;20221;-87
2022/11/14 13:09:23;;;;;;;8.48;4.93;;;12.60;46.80;;;;;;5033433;28;20304;-90
2022/11/14 13:22:35;;;;;;;8.48;4.88;;;12.60;49.10;;;;;;5034146;28;20276;-92
2022/11/14 13:28:59;;;;;;;8.38;5.10;;;12.70;49.20;;;;;;5037359;28;20234;-90
2022/11/14 13:31:43;;;;;;;8.10;5.00;;;12.70;49.20;;;;;;5027629;28;20289;-90
2022/11/14 13:34:38;;;;;;;7.53;5.40;;;12.80;52.70;;;;;;5032205;28;20233;-89
2022/11/14 13:37:14;;;;;;;5.75;5.00;;;12.70;51.00;;;;;;5029031;28;20286;-90
2022/11/14 13:39:48;;;;;;;6.85;4.93;;;12.70;53.20;;;;;;5029745;28;20313;-88
2022/11/14 13:42:42;;;;;;;6.95;4.57;;;12.70;53.50;;;;;;5025686;28;20227;-89
2022/11/14 13:45:44;;;;;;;5.82;5.28;;;12.80;53.10;;;;;;5030444;28;20208;-89
2022/11/14 13:48:40;;;;;;;5.82;5.10;;;12.80;53.80;;;;;;5027851;28;20333;-87
2022/11/14 13:51:10;;;;;;;7.15;5.05;;;12.80;54.40;;;;;;5025197;28;20551;-89
2022/11/14 13:53:40;;;;;;;11.82;5.32;;;12.80;54.60;;;;;;5024123;28;20240;-89
2022/11/14 13:56:23;;;;;;;9.23;5.13;;;12.80;55.60;;;;;;5022797;28;20238;-89
2022/11/14 13:59:20;;;;;;;9.63;5.30;;;12.70;54.30;;;;;;5023113;28;20215;-90
2022/11/14 14:02:19;;;;;;;7.45;5.13;;;12.60;55.70;;;;;;4948786;28;20737;-88
2022/11/14 14:05:01;;;;;;;7.65;5.10;;;12.50;56.30;;;;;;4944346;28;20715;-89
2022/11/14 14:11:11;;;;;;;11.25;4.80;;;12.30;60.30;;;;;;4934908;29;20169;-87
2022/11/14 14:20:45;;;;;;;8.02;4.90;;;12.30;63.80;;;;;;4936027;28;20659;-88
2022/11/14 14:30:13;;;;;;;8.25;5.22;;;12.10;64.40;;;;;;4934960;29;20193;-89
2022/11/14 14:36:24;;;;;;;6.45;5.18;;;11.70;69.90;;;;;;4954731;28;20202;-89
2022/11/14 14:39:06;;;;;;;8.02;5.90;;;11.60;72.10;;;;;;4984283;28;20230;-88
2022/11/14 14:41:34;;;;;;;8.07;5.60;;;11.50;74.70;;;;;;5026854;28;20214;-88
2022/11/14 14:44:01;;;;;;;6.93;5.60;;;11.30;75.20;;;;;;5025221;28;20202;-90
2022/11/14 14:46:55;;;;;;;6.95;5.30;;;11.20;78.00;;;;;;5033642;28;20285;-92
2022/11/14 14:49:39;;;;;;;6.13;5.50;;;11.20;78.30;;;;;;5036322;28;20340;-90
2022/11/14 14:52:31;;;;;;;7.53;5.55;;;11.10;79.40;;;;;;5038204;28;20285;-91
2022/11/14 15:00:04;;;;;;;6.80;5.82;;;10.90;82.30;;;;;;5006496;28;20246;-91
2022/11/14 15:02:32;;;;;;;8.18;5.97;;;10.80;83.40;;;;;;5008256;28;20316;-90
2022/11/14 15:05:00;;;;;;;9.02;6.10;;;10.70;85.60;;;;;;5010177;28;20203;-89
2022/11/14 15:07:30;;;;;;;6.22;5.63;;;10.50;87.10;;;;;;5009370;28;20208;-89
2022/11/14 15:10:08;;;;;;;7.18;5.82;;;10.40;87.90;;;;;;5012426;28;20294;-92
2022/11/14 15:12:40;;;;;;;8.35;6.30;;;10.20;89.30;;;;;;5009731;28;20203;-89
2022/11/14 15:15:21;;;;;;;7.68;6.00;;;10.20;90.30;;;;;;5014177;28;20211;-89
2022/11/14 15:17:50;;;;;;;7.65;6.13;;;10.10;90.30;;;;;;5013041;28;20297;-88
2022/11/14 15:20:32;;;;;;;7.03;5.95;;;9.90;91.30;;;;;;5015153;28;20209;-85